Terminal Aerodrome Forecast
Issued by NWS Mt. Holly, NJ

Home | Current Version | Previous Version | Text Only | Print | Product List | Glossary On
Versions: 1 2 3 4 5 6 7 8 9 10 11 12 13 14 15 16 17 18 19 20 21 22 23 24 25 26 27 28 29 30 31 32 33 34 35 36 37 38 39 40 41 42 43 44 45 46 47 48 49 50
002
FTAK31 PANC 280532
TAFABE
TAF
PABE 280532Z 2806/2906 23005KT P6SM BKN035
      TEMPO 2806/2809 SCT035 OVC060
     FM280900 VRB03KT P6SM SCT025 BKN035
      TEMPO 2813/2817 VRB03KT 2SM -RA BR BKN025
     FM281800 17006KT P6SM BKN060
     FM290200 22007KT P6SM -RA OVC035=

USA.gov is the U.S. government's official web portal to all federal, state and local government web resources and services.